ADDS METAR Data INFO
IDs: Format: Raw Decoded Include TAF

Data at: 0547 UTC 25 Feb 2018

KCPR 250453Z AUTO 22018KT 10SM CLR M07/M12 A2977 RMK AO2 PK WND 22027/0357 SLP138 T10721117
KCPR 250353Z 22019KT 10SM CLR M07/M12 A2976 RMK AO2 PK WND 21026/0349 SLP139 T10721122
KCPR 250253Z 22019KT 10SM CLR M07/M12 A2975 RMK AO2 SLP138 T10721122 53004
KCPR 250153Z 22018KT 10SM CLR M08/M13 A2975 RMK AO2 PK WND 23026/0136 SLP138 T10781128
KCPR 250053Z 23019KT 10SM CLR M08/M13 A2974 RMK AO2 SLP136 T10781128
KCPR 242353Z 21015KT 10SM CLR M08/M12 A2974 RMK AO2 SLP139 T10781122 11050 21100 53005
KCPR 242253Z 24019KT 10SM CLR M06/M12 A2974 RMK AO2 PK WND 24026/2247 SLP134 T10611117
KCPR 242153Z 22020KT 10SM CLR M05/M12 A2972 RMK AO2 PK WND 24026/2139 SLP119 T10501117
KCPR 242053Z 23017KT 10SM CLR M06/M12 A2972 RMK AO2 PK WND 22027/2020 SLP122 T10611117 58018
KCPR 241953Z 22021KT 10SM CLR M07/M12 A2976 RMK AO2 SLP131 T10671122
KCPR 241853Z 22019KT 10SM SCT085 M08/M13 A2977 RMK AO2 PK WND 22026/1803 SLP137 T10831133
KCPR 241753Z 22017KT 8SM BKN070 BKN085 M10/M14 A2979 RMK AO2 PK WND 22030/1732 SLP144 T11001144 11100 21150 58003
KCPR 241653Z 22018KT 9SM BKN090 M11/M16 A2980 RMK AO2 PK WND 21027/1635 SLP153 T11111161
KCPR 241553Z 22019KT 9SM OVC090 M12/M17 A2980 RMK AO2 PK WND 21026/1514 SLP158 T11171167
KCPR 241453Z 23014KT 10SM BKN085 M13/M18 A2980 RMK AO2 PK WND 21027/1432 SLP159 T11281183 53007
KCPR 241353Z 22017KT 10SM CLR M13/M18 A2977 RMK AO2 PK WND 21027/1330 SLP151 T11331183
KCPR 241253Z 21015KT 10SM CLR M14/M18 A2977 RMK AO2 SLP148 T11391178
KCPR 241153Z 23012KT 10SM CLR M14/M16 A2977 RMK AO2 SLP149 60000 70006 T11441161 11083 21161 56009
KCPR 241053Z AUTO 24008KT 10SM CLR M15/M16 A2978 RMK AO2 SLP155 T11501161
KCPR 240953Z AUTO 24014KT 10SM CLR M12/M13 A2978 RMK AO2 SLP148 T11171133
KCPR 240903Z AUTO 24016KT 5SM BR FEW001 M12/M13 A2980 RMK AO2 T11171128
KCPR 240853Z AUTO 24015KT 10SM CLR M12/M12 A2980 RMK AO2 SLP155 60000 T11171122 58015
KCPR 240753Z AUTO 24014KT 10SM SCT020 M11/M12 A2982 RMK AO2 SLP162 T11061117
KCPR 240725Z AUTO 24011KT 10SM FEW016 BKN022 M10/M11 A2983 RMK AO2 T11001111
KCPR 240718Z AUTO 24014KT 10SM SCT017 SCT021 M10/M11 A2983 RMK AO2 T11001111
KCPR 240707Z AUTO 23015KT 10SM BKN016 M09/M11 A2983 RMK AO2 T10941106
KCPR 240653Z AUTO 24012KT 10SM OVC014 M08/M10 A2984 RMK AO2 SNE26 SLP167 P0000 T10831100 410721267
KCPR 240642Z AUTO 27010KT 10SM BKN014 BKN023 OVC028 M08/M09 A2984 RMK AO2 SNE26 P0000 T10831094
KCPR 240635Z AUTO 27010KT 10SM SCT013 BKN023 OVC028 M08/M09 A2984 RMK AO2 SNE26 P0000 T10831094
KCPR 240553Z AUTO 25006KT 6SM -SN BR FEW018 BKN044 OVC065 M08/M09 A2985 RMK AO2 SLP178 P0000 60006 T10831094 11083 21094 58015
KCPR 240528Z AUTO 23005KT 3SM -SN BR OVC030 M09/M10 A2986 RMK AO2 P0000 T10891100
KCPR 240518Z AUTO 26004KT 2SM -SN BR OVC024 M09/M10 A2986 RMK AO2 P0000 T10941100
KCPR 240511Z AUTO 26004KT 3SM -SN BR OVC023 M09/M10 A2987 RMK AO2 P0000 T10941100
KCPR 240504Z AUTO 25003KT 2 1/2SM -SN BR OVC023 M09/M10 A2987 RMK AO2 P0000 T10941100
KCPR 240453Z AUTO 23003KT 1 1/2SM -SN BR OVC019 M09/M10 A2987 RMK AO2 SLP193 P0001 T10941100
KCPR 240436Z AUTO 24003KT 1 3/4SM -SN BR BKN023 OVC033 M09/M11 A2988 RMK AO2 P0000 T10941106
KCPR 240425Z AUTO 00000KT 2 1/2SM -SN BR SCT027 OVC033 M09/M11 A2988 RMK AO2 P0000 T10941106
KCPR 240413Z AUTO 00000KT 1 3/4SM -SN BR SCT022 OVC029 M09/M11 A2989 RMK AO2 P0000 T10941106
KCPR 240359Z AUTO 25003KT 4SM -SN BR OVC029 M09/M11 A2990 RMK AO2 P0000 T10941106
KCPR 240353Z AUTO 26003KT 2 1/2SM -SN BR OVC031 M09/M11 A2990 RMK AO2 SLP212 P0002 T10941106
KCPR 240345Z AUTO 00000KT 4SM -SN BR OVC032 M09/M11 A2990 RMK AO2 P0002 T10941106
KCPR 240337Z 00000KT 2 1/2SM -SN BR FEW026 OVC032 M09/M11 A2990 RMK AO2 P0002 T10941106
KCPR 240329Z 00000KT 1 3/4SM -SN BR FEW022 OVC033 M09/M11 A2990 RMK AO2 P0002 T10941111
KCPR 240317Z 00000KT 1 3/4SM -SN BR BKN016 OVC035 M09/M11 A2990 RMK AO2 P0001 T10941106
KCPR 240308Z 00000KT 1 1/2SM -SN BR OVC014 M09/M11 A2990 RMK AO2 P0001 T10941106
KCPR 240253Z 00000KT 3/4SM R03/5000VP6000FT -SN BR VV012 M09/M11 A2990 RMK AO2 SLP220 P0002 60003 T10941111 56007
KCPR 240250Z 00000KT 3/4SM R03/5000VP6000FT -SN BR VV013 M09/M11 A2990 RMK AO2 P0002
KCPR 240233Z 02003KT 1 3/4SM -SN BR OVC022 M09/M11 A2990 RMK AO2 P0001 T10941111
KCPR 240218Z 03003KT 2SM -SN BR OVC026 M09/M11 A2991 RMK AO2 P0001 T10941111
KCPR 240211Z 00000KT 2SM -SN BR OVC030 M09/M11 A2991 RMK AO2 P0001 T10941111
KCPR 240153Z 02003KT 5SM -SN BR OVC034 M09/M11 A2991 RMK AO2 SLP223 P0001 T10941111
KCPR 240145Z 00000KT 3SM -SN BR OVC034 M09/M11 A2991 RMK AO2 P0001 T10941111
KCPR 240134Z 00000KT 2SM -SN BR OVC028 M09/M11 A2991 RMK AO2 P0001 T10941111
KCPR 240118Z 08004KT 4SM -SN BR OVC036 M09/M11 A2991 RMK AO2 P0001 T10941111
KCPR 240104Z 09004KT 2SM -SN BR OVC036 M09/M11 A2991 RMK AO2 P0001 T10891106
KCPR 240053Z 00000KT 3SM -SN BR OVC034 M09/M11 A2991 RMK AO2 SLP222 P0000 T10891111
KCPR 240047Z 00000KT 3SM -SN BR OVC034 M09/M11 A2992 RMK AO2 P0000
KCPR 240040Z 35004KT 1 3/4SM -SN BR OVC034 M09/M11 A2991 RMK AO2 P0000 T10941111
KCPR 240012Z 00000KT 1 1/4SM -SN OVC026 M09/M12 A2992 RMK AO2 P0000 T10891117
KCPR 240003Z 2 1/2SM -SN OVC028 M08/M12 A2992 RMK AO2 P0000 T10831122
KCPR 232353Z 6SM -SN BKN034 OVC042 M08/M13 A2993 RMK AO2 SNB52 SLP231 P0000 60000 T10831128 11072 21139 56005
KCPR 232253Z 00000KT 10SM FEW055 BKN070 OVC095 M08/M13 A2993 RMK AO2 SLP231 T10831133
KCPR 232153Z 00000KT 10SM SCT070 BKN090 M08/M13 A2993 RMK AO2 SLP230 T10831133
KCPR 232053Z 11003KT 10SM CLR M09/M14 A2994 RMK AO2 SLP235 T10891144 58021
KCPR 231953Z 02004KT 10SM CLR M10/M16 A2997 RMK AO2 SLP245 T11001161
KCPR 231853Z 00000KT 10SM OVC046 M12/M18 A3000 RMK AO2 SLP252 T11221178
KCPR 231753Z 00000KT 10SM CLR M14/M19 A3002 RMK AO2 SLP264 I6000 T11391194 11139 21267 58003